createdAt,value
2023-01-06T00:10:09.392Z,66.45
2023-01-06T00:13:34.896Z,66.09
2023-01-06T00:20:08.980Z,66.21
2023-01-06T00:22:47.024Z,65.94
2023-01-06T00:25:18.083Z,65.78
2023-01-06T00:27:50.168Z,65.55
2023-01-06T00:39:07.846Z,65.13
2023-01-06T00:46:16.611Z,65.10
2023-01-06T00:52:33.121Z,64.77
2023-01-06T01:00:40.112Z,64.85
2023-01-06T01:03:13.914Z,65.04
2023-01-06T01:06:57.505Z,64.82
2023-01-06T01:09:31.538Z,64.72
2023-01-06T01:12:18.472Z,64.97
2023-01-06T01:18:23.941Z,64.49
2023-01-06T01:32:05.412Z,64.33
2023-01-06T01:34:49.746Z,64.21
2023-01-06T01:37:20.586Z,64.05
2023-01-06T01:40:56.454Z,64.11
2023-01-06T01:52:58.450Z,63.98
2023-01-06T01:55:54.002Z,63.74
2023-01-06T01:59:03.236Z,63.76
2023-01-06T02:02:19.738Z,63.59
2023-01-06T02:04:56.276Z,63.81
2023-01-06T02:11:52.653Z,63.59
2023-01-06T02:18:51.961Z,63.77
2023-01-06T02:21:36.377Z,63.28
2023-01-06T02:24:40.149Z,62.75
2023-01-06T02:28:32.167Z,63.19
2023-01-06T02:43:57.158Z,63.29
2023-01-06T02:50:20.634Z,62.78
2023-01-06T03:01:39.750Z,62.88
2023-01-06T03:08:41.252Z,63.24
2023-01-06T03:15:53.241Z,64.62
2023-01-06T03:18:49.344Z,65.72
2023-01-06T03:21:27.792Z,66.14
2023-01-06T03:23:59.956Z,66.06
2023-01-06T03:26:33.747Z,66.32
2023-01-06T03:29:08.036Z,65.87
2023-01-06T03:31:46.619Z,66.15
2023-01-06T03:34:28.224Z,66.53
2023-01-06T03:37:01.301Z,66.39
2023-01-06T03:40:24.719Z,66.62
2023-01-06T03:43:14.846Z,66.57
2023-01-06T03:49:57.157Z,66.63
2023-01-06T03:52:39.286Z,66.97
2023-01-06T03:58:40.097Z,66.93
2023-01-06T04:01:19.154Z,66.27
2023-01-06T04:03:51.260Z,66.23
2023-01-06T04:06:29.169Z,66.15
2023-01-06T04:09:47.175Z,66.35
2023-01-06T04:12:42.870Z,66.54
2023-01-06T04:21:58.493Z,66.82
2023-01-06T04:24:33.683Z,66.86
2023-01-06T04:30:29.592Z,66.48
2023-01-06T04:44:01.753Z,66.88
2023-01-06T04:47:24.350Z,67.07
2023-01-06T04:49:54.325Z,67.07
2023-01-06T05:00:33.358Z,66.87
2023-01-06T05:03:13.488Z,66.77
2023-01-06T05:05:59.582Z,66.81
2023-01-06T05:08:38.525Z,66.67
2023-01-06T05:11:28.597Z,66.82
2023-01-06T05:14:12.510Z,66.74
2023-01-06T05:33:46.573Z,67.43
2023-01-06T05:39:43.584Z,67.15
2023-01-06T05:42:19.066Z,67.28
2023-01-06T05:47:48.831Z,67.01
2023-01-06T05:50:20.246Z,66.83
2023-01-06T05:57:22.248Z,66.99
2023-01-06T06:01:25.319Z,67.27
2023-01-06T06:09:45.091Z,67.05
2023-01-06T06:22:36.026Z,67.09
2023-01-06T06:29:32.183Z,66.99
2023-01-06T06:32:11.626Z,66.83
2023-01-06T06:53:03.957Z,66.82
2023-01-06T06:55:51.274Z,66.47
2023-01-06T06:58:29.576Z,66.65
2023-01-06T07:01:07.423Z,66.63
2023-01-06T09:48:35.055Z,66.44
2023-01-06T09:52:01.505Z,66.42
2023-01-06T09:54:38.394Z,66.45
2023-01-06T09:57:14.297Z,66.49
2023-01-06T09:59:58.278Z,66.65
2023-01-06T10:02:32.940Z,66.45
2023-01-06T10:05:04.551Z,66.62
2023-01-06T10:07:41.426Z,66.43
2023-01-06T10:10:22.404Z,66.33
2023-01-06T10:13:01.151Z,66.55
2023-01-06T10:16:08.384Z,66.42
2023-01-06T10:19:00.790Z,66.41
2023-01-06T10:24:38.900Z,66.44
2023-01-06T10:30:57.152Z,66.37
2023-01-06T10:33:52.510Z,66.38
2023-01-06T10:36:57.595Z,66.05
2023-01-06T11:00:39.658Z,65.76
2023-01-06T11:03:34.542Z,65.63
2023-01-06T11:10:41.481Z,65.32
2023-01-06T11:23:49.900Z,64.92
2023-01-06T11:27:07.214Z,65.02
2023-01-06T11:37:48.271Z,64.75
2023-01-06T11:40:22.976Z,64.62
2023-01-06T11:42:51.941Z,64.63
2023-01-06T11:45:58.644Z,64.53
2023-01-06T11:48:37.449Z,64.34
2023-01-06T11:51:12.434Z,64.50
2023-01-06T11:54:09.077Z,64.40
2023-01-06T11:56:46.785Z,64.18
2023-01-06T11:59:18.310Z,64.13
2023-01-06T12:01:53.415Z,63.94
2023-01-06T12:04:30.978Z,63.83
2023-01-06T12:07:05.688Z,63.78
2023-01-06T12:09:38.689Z,63.46
2023-01-06T12:12:16.735Z,63.34
2023-01-06T12:14:48.086Z,63.00
2023-01-06T12:17:25.826Z,62.90
2023-01-06T12:19:57.857Z,62.81
2023-01-06T12:22:37.619Z,62.70
2023-01-06T12:25:13.615Z,62.58
2023-01-06T12:27:56.637Z,62.34
2023-01-06T12:30:36.259Z,62.22
2023-01-06T12:33:12.221Z,62.13
2023-01-06T12:35:43.681Z,62.32
2023-01-06T12:38:30.316Z,62.14
2023-01-06T12:41:04.814Z,61.72
2023-01-06T12:43:34.941Z,61.54
2023-01-06T12:46:06.961Z,61.49
2023-01-06T12:48:41.713Z,61.53
2023-01-06T12:51:25.737Z,61.08
2023-01-06T13:00:30.027Z,61.18
2023-01-06T13:03:26.493Z,61.06
2023-01-06T13:06:30.762Z,60.86
2023-01-06T13:09:35.746Z,60.63
2023-01-06T13:12:15.727Z,60.60
2023-01-06T13:14:58.669Z,60.39
2023-01-06T13:17:36.156Z,60.68
2023-01-06T13:20:09.166Z,60.55
2023-01-06T13:22:48.279Z,60.25
2023-01-06T13:25:53.155Z,60.37
2023-01-06T13:28:46.183Z,60.61
2023-01-06T13:32:31.872Z,60.59
2023-01-06T13:35:54.050Z,60.64
2023-01-06T13:39:24.051Z,60.60
2023-01-06T13:45:35.457Z,60.24
2023-01-06T13:48:49.147Z,60.32
2023-01-06T14:00:48.582Z,60.44
2023-01-06T14:28:11.911Z,60.74
2023-01-06T14:44:34.256Z,61.29
2023-01-06T14:47:18.807Z,61.65
2023-01-06T14:50:22.406Z,61.94
2023-01-06T15:03:34.257Z,63.30
2023-01-06T15:06:53.359Z,63.74
2023-01-06T15:16:51.185Z,64.50
2023-01-06T15:19:55.068Z,64.75
2023-01-06T15:26:41.115Z,65.70
2023-01-06T15:33:46.354Z,66.06
2023-01-06T15:37:01.785Z,66.34
2023-01-06T15:43:15.096Z,66.79
2023-01-06T15:50:00.237Z,67.39
2023-01-06T16:03:54.204Z,67.97
2023-01-06T16:17:09.341Z,68.26
2023-01-06T16:19:42.813Z,68.18
2023-01-06T16:22:37.300Z,68.32
2023-01-06T16:25:39.133Z,68.32
2023-01-06T16:28:34.000Z,68.64
2023-01-06T16:35:39.617Z,68.77
2023-01-06T16:38:52.742Z,68.64
2023-01-06T16:53:58.046Z,69.48
2023-01-06T16:57:43.003Z,69.33
2023-01-06T17:05:52.061Z,69.31
2023-01-06T17:19:03.075Z,69.47
2023-01-06T17:21:36.119Z,69.53
2023-01-06T17:24:08.084Z,69.73
2023-01-06T17:26:36.371Z,69.76
2023-01-06T17:29:10.448Z,69.97
2023-01-06T17:31:40.539Z,69.96
2023-01-06T17:34:12.631Z,70.21
2023-01-06T17:36:43.982Z,70.17
2023-01-06T17:39:15.706Z,70.20
2023-01-06T17:44:45.774Z,70.23
2023-01-06T17:47:18.228Z,70.27
2023-01-06T17:49:49.013Z,70.31
2023-01-06T17:52:19.591Z,70.20
2023-01-06T17:55:12.228Z,70.09
2023-01-06T17:57:41.478Z,70.42
2023-01-06T18:00:24.205Z,70.33
2023-01-06T18:02:55.140Z,70.43
2023-01-06T18:05:53.932Z,70.32
2023-01-06T18:08:23.851Z,70.43
2023-01-06T18:10:53.261Z,70.53
2023-01-06T18:13:23.872Z,70.51
2023-01-06T18:15:54.904Z,70.39
2023-01-06T18:18:24.335Z,70.18
2023-01-06T18:20:54.081Z,70.32
2023-01-06T18:23:24.505Z,70.23
2023-01-06T18:25:53.815Z,70.04
2023-01-06T18:28:22.139Z,70.24
2023-01-06T18:30:52.084Z,70.04
2023-01-06T18:33:20.346Z,69.96
2023-01-06T18:35:52.586Z,70.12
2023-01-06T18:38:20.900Z,69.99
2023-01-06T18:40:50.474Z,69.91
2023-01-06T18:43:24.254Z,70.03
2023-01-06T18:45:52.915Z,69.75
2023-01-06T18:48:27.587Z,69.44
2023-01-06T18:50:57.045Z,69.65
2023-01-06T18:53:27.667Z,69.65
2023-01-06T18:55:57.730Z,69.52
2023-01-06T18:58:38.861Z,69.77
2023-01-06T19:01:14.617Z,69.90
2023-01-06T19:03:43.219Z,69.56
2023-01-06T19:06:39.454Z,69.28
2023-01-06T19:09:23.268Z,69.50
2023-01-06T19:11:59.020Z,69.43
2023-01-06T19:14:27.375Z,69.37
2023-01-06T19:16:56.338Z,69.19
2023-01-06T19:19:26.915Z,68.93
2023-01-06T19:22:01.617Z,69.01
2023-01-06T19:24:40.331Z,69.15
2023-01-06T19:27:31.376Z,69.18
2023-01-06T19:30:19.027Z,69.37
2023-01-06T19:32:47.259Z,69.15
2023-01-06T19:35:18.047Z,69.38
2023-01-06T19:37:46.321Z,69.21
2023-01-06T19:40:23.939Z,69.11
2023-01-06T19:42:54.055Z,69.00
2023-01-06T19:45:29.952Z,68.79
2023-01-06T19:47:59.651Z,68.57
2023-01-06T19:50:27.801Z,68.79
2023-01-06T19:52:58.951Z,68.83
2023-01-06T19:55:32.343Z,68.60
2023-01-06T19:58:03.575Z,68.55
2023-01-06T20:00:33.115Z,68.60
2023-01-06T20:03:03.550Z,68.57
2023-01-06T20:05:32.991Z,68.75
2023-01-06T20:08:01.426Z,68.67
2023-01-06T20:10:29.833Z,68.45
2023-01-06T20:12:58.013Z,67.88
2023-01-06T20:15:27.925Z,68.20
2023-01-06T20:17:56.238Z,68.30
2023-01-06T20:20:24.665Z,68.19
2023-01-06T20:22:54.139Z,67.74
2023-01-06T20:25:23.689Z,67.66
2023-01-06T20:27:51.954Z,67.63
2023-01-06T20:30:21.073Z,67.50
2023-01-06T20:32:54.691Z,67.56
2023-01-06T20:35:23.015Z,67.50
2023-01-06T20:37:51.183Z,67.46
2023-01-06T20:40:20.529Z,67.26
2023-01-06T20:42:49.025Z,67.27
2023-01-06T20:45:17.273Z,67.37
2023-01-06T20:47:46.071Z,67.05
2023-01-06T20:50:15.871Z,67.13
2023-01-06T20:52:45.443Z,67.02
2023-01-06T20:58:18.919Z,67.06
2023-01-06T21:00:47.318Z,66.99
2023-01-06T21:03:15.490Z,66.76
2023-01-06T21:05:45.087Z,67.21
2023-01-06T21:08:15.269Z,67.12
2023-01-06T21:10:43.528Z,67.27
2023-01-06T21:13:11.629Z,67.56
2023-01-06T21:15:39.929Z,67.51
2023-01-06T21:18:08.073Z,67.60
2023-01-06T21:20:36.628Z,68.00
2023-01-06T21:23:06.684Z,67.97
2023-01-06T21:25:34.936Z,67.85
2023-01-06T21:28:03.326Z,68.04
2023-01-06T21:30:32.129Z,68.06
2023-01-06T21:33:00.382Z,68.09
2023-01-06T21:35:32.279Z,67.90
2023-01-06T21:38:00.512Z,67.79
2023-01-06T21:40:30.194Z,68.06
2023-01-06T21:43:09.226Z,68.05
2023-01-06T21:45:37.656Z,67.88
2023-01-06T21:48:06.243Z,67.92
2023-01-06T21:50:35.710Z,67.65
2023-01-06T21:53:03.938Z,67.96
2023-01-06T21:55:34.089Z,67.71
2023-01-06T21:58:02.353Z,67.70
2023-01-06T22:00:30.626Z,67.61
2023-01-06T22:02:59.003Z,67.43
2023-01-06T22:05:27.336Z,67.48
2023-01-06T22:07:55.601Z,67.47
2023-01-06T22:10:24.558Z,67.54
2023-01-06T22:12:54.962Z,67.93
2023-01-06T22:15:23.332Z,67.71
2023-01-06T22:17:51.439Z,68.11
2023-01-06T22:20:19.892Z,67.83
2023-01-06T22:22:48.107Z,68.19
2023-01-06T22:25:16.425Z,67.58
2023-01-06T22:27:44.565Z,67.88
2023-01-06T22:30:14.540Z,68.10
2023-01-06T22:32:43.675Z,68.46
2023-01-06T22:35:12.440Z,68.36
2023-01-06T22:37:40.633Z,68.45
2023-01-06T22:40:09.769Z,68.60
2023-01-06T22:42:38.002Z,68.48
2023-01-06T22:45:07.444Z,68.65
2023-01-06T22:47:36.940Z,68.61
2023-01-06T22:50:05.522Z,68.20
2023-01-06T22:52:33.850Z,68.06
2023-01-06T22:55:02.055Z,67.69
2023-01-06T22:57:30.281Z,67.51
2023-01-06T22:59:58.518Z,67.24
2023-01-06T23:02:26.820Z,67.12
2023-01-06T23:04:56.730Z,66.83
2023-01-06T23:07:25.004Z,66.97
2023-01-06T23:09:53.155Z,66.93
2023-01-06T23:12:21.528Z,66.90
2023-01-06T23:14:49.728Z,66.93
2023-01-06T23:17:18.024Z,66.97
2023-01-06T23:19:46.850Z,67.06
2023-01-06T23:22:17.310Z,67.29
2023-01-06T23:24:45.774Z,67.25
2023-01-06T23:27:13.928Z,67.17
2023-01-06T23:29:42.323Z,67.19
2023-01-06T23:32:10.524Z,67.23
2023-01-06T23:34:39.492Z,67.10
2023-01-06T23:37:07.781Z,67.35
2023-01-06T23:39:37.413Z,67.25
2023-01-06T23:42:08.510Z,66.89
2023-01-06T23:44:37.044Z,67.05
2023-01-06T23:47:07.557Z,67.14
2023-01-06T23:49:36.425Z,67.05
2023-01-06T23:52:04.598Z,66.91
2023-01-06T23:54:32.860Z,67.21
2023-01-06T23:57:02.504Z,67.12
2023-01-06T23:59:30.827Z,67.30
